Memorial Field
KHOT : now visible

Airfield :











YOU CAN JOIN US ON...

 
LOGIN :

Register | Disclaimer

   EN    FR    IT 

 









Legend :    VFR   Marginal VFR   IFR   Intensive IFR   Very Intensive IFR
Visi :
Ceiling :
>= 8 km
>= 3000ft
5 to 8 km
1000 to 3000 ft
1500m to 5 km
500 to 1000 ft
800 to 1500m
200 to 500 ft
< 800m
< 200 ft
Symbols :   Thunderstorms  Fog  Heavy snow  Heavy precipitations  Wind > 20 kt






- Airport Elevation : 540 ft
- IATA code : HOT


KHOT - Memorial Field

CURRENT METAR :
  • 030853Z AUTO 27005KT 10SM CLR 21/19 A2996 RMK AO2 SLP140 T02110194 58005

EXPIRED METARs :
  • 030753Z AUTO 28003KT 10SM BKN090 21/20 A2997 RMK AO2 SLP143 T02110200
  • 030653Z AUTO 00000KT 10SM BKN095 22/20 A2998 RMK AO2 SLP144 T02170200
  • 030626Z AUTO 00000KT 10SM FEW003 22/21 A2998 RMK AO2 T02170206
  • 030553Z AUTO 00000KT 10SM CLR 22/21 A2998 RMK AO2 SLP144 T02170206 10256 20217 403110178 50007

TAF KHOT
Valid from the 03 at 06:00 until the 04 at 06:00 UTC


030539Z 0306/0406 VRB03KT P6SM BKN250
TEMPO 0311/0314 5SM BR
FM031400 32006KT P6SM SCT045 SCT250
FM040100 VRB03KT P6SM SCT250
KZME FIR / North America



MET'MAP, your aeronautical weather chart ! - Copyright ORBIFLY December 2007 - Disclaimer

ORBIFLY MET'MAP TEAM :

Programming & Development : Alexandra Zaïnal
Concept & original design : Baudouin d'Aumeries
Assistance for programming : Marc-Olivier Méhu
Technical & hardware support : Manuel Goepfert

Contact : metmap@orbifly.com




SOURCES & CREDITS :

   NOAA       Earth
Advisory